Time;durP1;ratioP1;P1;durP2;ratioP2;P2;SDS_P1;SDS_P2;PMS_P1;PMS_P2;Temp;Humidity;BMP_temperature;BMP_pressure;BME280_temperature;BME280_humidity;BME280_pressure;Samples;Min_cycle;Max_cycle;Signal;HPM_P1;HPM_P2
2021/09/09 00:00:19;;;;;;;14.60;7.35;;;;;;;15.95;100.00;93673.19;5113713;28;20658;-80
2021/09/09 00:02:45;;;;;;;12.88;7.43;;;;;;;15.88;100.00;93660.16;5113680;28;20209;-79
2021/09/09 00:05:12;;;;;;;11.82;7.18;;;;;;;15.89;100.00;93661.78;5113526;28;20198;-79
2021/09/09 00:07:38;;;;;;;11.20;6.57;;;;;;;15.81;100.00;93664.78;5113753;28;20537;-79
2021/09/09 00:10:08;;;;;;;12.50;7.50;;;;;;;15.81;100.00;93670.03;5113456;28;20710;-79
2021/09/09 00:12:34;;;;;;;14.27;6.93;;;;;;;15.76;100.00;93663.91;5112349;28;20210;-79
2021/09/09 00:15:01;;;;;;;11.77;7.53;;;;;;;15.69;100.00;93671.91;5113780;28;20205;-79
2021/09/09 00:17:27;;;;;;;12.50;7.32;;;;;;;15.78;100.00;93667.09;5113556;28;20209;-79
2021/09/09 00:19:54;;;;;;;14.20;7.13;;;;;;;15.79;100.00;93666.84;5113604;28;20205;-79
2021/09/09 00:22:20;;;;;;;10.55;7.28;;;;;;;15.79;100.00;93663.44;5113213;28;20200;-80
2021/09/09 00:24:47;;;;;;;12.52;7.30;;;;;;;15.85;100.00;93662.47;5113100;28;20201;-80
2021/09/09 00:27:15;;;;;;;11.10;7.20;;;;;;;15.82;100.00;93663.75;5112347;28;20205;-79
2021/09/09 00:29:41;;;;;;;12.93;6.78;;;;;;;15.72;100.00;93663.50;5113485;28;20228;-79
2021/09/09 00:32:08;;;;;;;10.63;7.28;;;;;;;15.94;100.00;93655.00;5111778;28;20548;-78
2021/09/09 00:34:35;;;;;;;13.18;7.32;;;;;;;15.99;100.00;93665.63;5112187;28;20246;-80
2021/09/09 00:37:01;;;;;;;12.57;7.15;;;;;;;15.90;100.00;93666.00;5113295;28;20209;-79
2021/09/09 00:39:28;;;;;;;15.30;7.50;;;;;;;15.91;100.00;93657.06;5113266;28;20197;-80
2021/09/09 00:41:54;;;;;;;10.48;6.78;;;;;;;15.77;100.00;93666.31;5113091;28;20197;-80
2021/09/09 00:44:23;;;;;;;13.60;6.95;;;;;;;16.15;100.00;93662.22;5113166;28;20675;-80
2021/09/09 00:47:01;;;;;;;12.27;6.50;;;;;;;15.85;100.00;93660.66;5113327;28;20205;-79
2021/09/09 00:49:28;;;;;;;13.05;6.57;;;;;;;15.80;100.00;93659.75;5113232;28;20269;-80
2021/09/09 00:51:55;;;;;;;15.80;7.18;;;;;;;15.74;100.00;93664.09;5113118;28;20197;-79
2021/09/09 00:54:21;;;;;;;10.30;6.35;;;;;;;15.66;100.00;93660.00;5112557;28;20201;-80
2021/09/09 00:56:49;;;;;;;9.50;6.07;;;;;;;15.90;100.00;93649.41;5112989;28;20682;-80
2021/09/09 00:59:16;;;;;;;10.82;7.20;;;;;;;16.06;100.00;93658.38;5113243;28;20216;-79
2021/09/09 01:01:44;;;;;;;12.30;6.75;;;;;;;15.95;100.00;93646.06;5113116;28;20201;-79
2021/09/09 01:04:10;;;;;;;15.80;6.68;;;;;;;15.75;100.00;93647.25;5096824;28;20202;-79
2021/09/09 01:06:37;;;;;;;11.68;6.50;;;;;;;15.61;100.00;93653.84;5091426;28;20205;-79
2021/09/09 01:09:04;;;;;;;10.05;5.63;;;;;;;15.40;100.00;93648.19;5092825;28;20217;-79
2021/09/09 01:11:30;;;;;;;11.00;7.07;;;;;;;15.45;100.00;93658.81;5092583;28;20569;-79
2021/09/09 01:14:05;;;;;;;10.55;6.88;;;;;;;15.34;100.00;93662.28;5092768;28;20202;-80
2021/09/09 01:16:32;;;;;;;11.75;6.55;;;;;;;15.35;100.00;93645.44;5092812;28;20201;-79
2021/09/09 01:19:00;;;;;;;14.60;7.18;;;;;;;15.24;100.00;93644.47;5110821;28;20201;-79
2021/09/09 01:21:26;;;;;;;12.57;7.07;;;;;;;15.16;100.00;93645.63;5113088;28;20201;-78
2021/09/09 01:23:55;;;;;;;10.18;6.68;;;;;;;15.09;100.00;93650.22;5113146;28;20569;-79
2021/09/09 01:26:23;;;;;;;12.88;6.88;;;;;;;15.01;100.00;93647.94;5112647;28;20226;-79
2021/09/09 01:28:51;;;;;;;14.90;6.95;;;;;;;14.94;100.00;93650.69;5112893;28;20556;-80
2021/09/09 01:31:18;;;;;;;9.98;6.35;;;;;;;15.08;100.00;93648.59;5112026;28;20601;-79
2021/09/09 01:33:44;;;;;;;10.52;6.70;;;;;;;15.08;100.00;93648.59;5114260;28;20204;-79
2021/09/09 01:36:11;;;;;;;11.93;6.93;;;;;;;15.04;100.00;93644.84;5116280;27;20201;-78
2021/09/09 01:38:37;;;;;;;12.65;7.45;;;;;;;15.41;100.00;93647.16;5116399;28;20323;-78
2021/09/09 01:41:04;;;;;;;13.63;7.50;;;;;;;15.36;100.00;93639.16;5116192;28;20201;-80
2021/09/09 01:43:32;;;;;;;13.00;7.57;;;;;;;15.35;100.00;93640.19;5116381;27;20198;-79
2021/09/09 01:45:58;;;;;;;9.23;6.47;;;;;;;15.29;100.00;93634.03;5116138;28;20202;-79
2021/09/09 01:48:25;;;;;;;11.27;6.43;;;;;;;15.27;100.00;93637.91;5114864;28;20194;-79
2021/09/09 01:50:51;;;;;;;14.52;6.32;;;;;;;15.38;100.00;93634.47;5116260;28;20225;-79
2021/09/09 01:53:18;;;;;;;13.93;6.90;;;;;;;15.49;100.00;93628.38;5116393;28;20204;-79
2021/09/09 01:55:44;;;;;;;10.93;7.23;;;;;;;15.40;100.00;93629.75;5116042;28;20778;-79
2021/09/09 01:58:11;;;;;;;12.07;6.53;;;;;;;15.48;100.00;93637.28;5116219;28;20197;-79
2021/09/09 02:00:39;;;;;;;9.95;6.35;;;;;;;15.27;100.00;93636.13;5116063;28;20216;-79
2021/09/09 02:03:05;;;;;;;13.30;7.55;;;;;;;15.10;100.00;93635.22;5115380;28;20667;-79
2021/09/09 02:05:31;;;;;;;9.25;6.57;;;;;;;15.09;100.00;93637.06;5115033;28;20197;-79
2021/09/09 02:07:58;;;;;;;11.55;6.68;;;;;;;15.07;100.00;93644.38;5116050;28;20232;-80
2021/09/09 02:10:24;;;;;;;16.90;6.78;;;;;;;15.07;100.00;93636.50;5115796;28;20282;-79
2021/09/09 02:12:51;;;;;;;12.95;6.72;;;;;;;14.92;100.00;93649.28;5115942;28;20205;-79
2021/09/09 02:15:18;;;;;;;9.48;6.60;;;;;;;14.85;100.00;93643.38;5115502;28;20198;-79
2021/09/09 02:17:46;;;;;;;14.18;7.32;;;;;;;14.78;100.00;93636.41;5115580;28;20196;-78
2021/09/09 02:20:14;;;;;;;12.20;7.55;;;;;;;14.95;100.00;93638.31;5115755;28;20208;-80
2021/09/09 02:22:40;;;;;;;10.52;6.68;;;;;;;14.96;100.00;93632.06;5115696;28;20243;-79
2021/09/09 02:25:07;;;;;;;14.57;7.78;;;;;;;14.96;100.00;93629.41;5115443;28;20233;-79
2021/09/09 02:27:34;;;;;;;12.88;7.18;;;;;;;14.94;100.00;93634.13;5115452;28;20201;-79
2021/09/09 02:30:00;;;;;;;15.68;7.63;;;;;;;14.94;100.00;93637.53;5115237;28;20225;-79
2021/09/09 02:32:27;;;;;;;10.90;6.38;;;;;;;14.92;100.00;93636.97;5115508;28;20201;-79
2021/09/09 02:34:54;;;;;;;9.52;6.53;;;;;;;14.78;100.00;93635.59;5115531;28;20205;-79
2021/09/09 02:37:21;;;;;;;11.70;7.10;;;;;;;14.91;100.00;93629.31;5114813;28;20270;-79
2021/09/09 02:39:47;;;;;;;13.93;7.82;;;;;;;14.98;100.00;93632.63;5115349;28;20206;-79
2021/09/09 02:42:14;;;;;;;14.60;7.60;;;;;;;15.09;100.00;93634.44;5115242;28;20197;-79
2021/09/09 02:44:41;;;;;;;13.25;8.07;;;;;;;15.08;100.00;93630.19;5115044;28;20194;-79
2021/09/09 02:47:07;;;;;;;11.80;6.93;;;;;;;15.05;100.00;93637.75;5115034;28;20651;-79
2021/09/09 02:49:34;;;;;;;12.32;6.88;;;;;;;14.97;100.00;93638.88;5115173;28;20225;-80
2021/09/09 02:52:02;;;;;;;12.15;7.40;;;;;;;14.89;100.00;93629.53;5114903;28;20659;-80
2021/09/09 02:54:28;;;;;;;13.80;7.30;;;;;;;14.83;100.00;93637.56;5115046;28;20206;-79
2021/09/09 02:56:55;;;;;;;11.95;7.15;;;;;;;14.72;100.00;93633.88;5114845;28;20194;-79
2021/09/09 02:59:21;;;;;;;15.00;7.53;;;;;;;14.71;100.00;93633.09;5114762;28;20201;-79
2021/09/09 03:01:47;;;;;;;14.32;7.93;;;;;;;14.84;100.00;93631.25;5114949;28;20263;-80
2021/09/09 03:04:14;;;;;;;17.50;7.28;;;;;;;14.76;100.00;93632.41;5114873;28;20225;-79
2021/09/09 03:06:40;;;;;;;15.90;7.72;;;;;;;14.72;100.00;93629.44;5114781;28;20594;-79
2021/09/09 03:09:08;;;;;;;11.85;7.20;;;;;;;14.59;100.00;93637.56;5114637;28;20552;-79
2021/09/09 03:11:35;;;;;;;12.75;7.43;;;;;;;14.53;100.00;93633.19;5114587;28;20205;-80
2021/09/09 03:14:01;;;;;;;11.43;6.95;;;;;;;14.44;100.00;93633.53;5113495;28;20202;-79
2021/09/09 03:16:27;;;;;;;13.15;7.10;;;;;;;14.43;100.00;93629.28;5114679;28;20204;-81
2021/09/09 03:18:54;;;;;;;12.63;7.20;;;;;;;14.33;100.00;93631.69;5114324;28;20197;-80
2021/09/09 03:21:20;;;;;;;11.98;7.18;;;;;;;14.09;100.00;93635.28;5114500;28;20201;-79
2021/09/09 03:23:47;;;;;;;11.55;6.93;;;;;;;13.77;100.00;93627.69;5114498;27;20200;-78
2021/09/09 03:26:15;;;;;;;10.38;7.30;;;;;;;13.84;100.00;93629.19;5114111;28;20229;-79
2021/09/09 03:28:41;;;;;;;11.20;7.43;;;;;;;13.81;100.00;93623.59;5114544;28;20597;-79
2021/09/09 03:31:07;;;;;;;13.05;7.82;;;;;;;13.72;100.00;93625.72;5114412;28;20591;-79
2021/09/09 03:33:34;;;;;;;18.10;9.07;;;;;;;13.96;100.00;93618.72;5114368;28;20563;-79
2021/09/09 03:36:00;;;;;;;13.27;8.45;;;;;;;13.93;100.00;93621.00;5114262;28;20201;-79
2021/09/09 03:38:27;;;;;;;19.38;7.88;;;;;;;13.91;100.00;93615.19;5114217;28;20204;-79
2021/09/09 03:40:53;;;;;;;14.07;8.63;;;;;;;13.94;100.00;93612.91;5114002;28;20205;-79
2021/09/09 03:43:21;;;;;;;14.33;8.83;;;;;;;13.81;100.00;93618.34;5114306;28;20524;-79
2021/09/09 03:45:47;;;;;;;15.48;8.25;;;;;;;13.71;100.00;93612.84;5114167;28;20567;-79
2021/09/09 03:48:15;;;;;;;14.05;8.25;;;;;;;13.84;100.00;93612.66;5114168;28;20201;-79
2021/09/09 03:50:41;;;;;;;16.63;7.60;;;;;;;13.90;100.00;93611.75;5113873;28;20236;-79
2021/09/09 03:53:08;;;;;;;12.98;8.35;;;;;;;13.76;100.00;93613.78;5113988;28;20262;-79
2021/09/09 03:55:34;;;;;;;15.15;8.82;;;;;;;13.76;100.00;93610.34;5113310;28;20201;-79
2021/09/09 03:58:01;;;;;;;18.92;8.32;;;;;;;13.81;100.00;93602.59;5114018;28;20213;-79
2021/09/09 04:00:29;;;;;;;12.38;8.13;;;;;;;13.82;100.00;93606.81;5113972;28;20198;-79
2021/09/09 04:02:55;;;;;;;15.23;8.25;;;;;;;13.80;100.00;93614.13;5113794;28;20197;-79
2021/09/09 04:05:22;;;;;;;16.42;8.40;;;;;;;13.81;100.00;93607.84;5113634;28;20204;-78
2021/09/09 04:07:48;;;;;;;16.70;9.20;;;;;;;13.82;100.00;93615.50;5113672;28;20197;-80
2021/09/09 04:10:15;;;;;;;12.63;7.93;;;;;;;14.05;100.00;93613.94;5113536;28;20225;-79
2021/09/09 04:12:41;;;;;;;13.27;8.85;;;;;;;14.01;100.00;93610.97;5112768;28;20544;-80
2021/09/09 04:15:09;;;;;;;12.95;7.72;;;;;;;14.18;100.00;93611.09;5113724;28;20193;-80
2021/09/09 04:17:37;;;;;;;14.65;7.43;;;;;;;14.37;100.00;93617.06;5112045;28;20193;-80
2021/09/09 04:20:04;;;;;;;14.70;7.95;;;;;;;14.41;100.00;93618.22;5113528;28;20544;-80
2021/09/09 04:22:31;;;;;;;12.18;7.32;;;;;;;14.24;100.00;93612.84;5113352;28;20209;-81
2021/09/09 04:24:58;;;;;;;10.82;6.93;;;;;;;14.49;100.00;93619.72;5113171;28;20275;-79
2021/09/09 04:27:24;;;;;;;13.98;6.93;;;;;;;14.22;100.00;93624.56;5113531;28;20248;-79
2021/09/09 04:29:52;;;;;;;11.68;7.30;;;;;;;14.20;100.00;93624.00;5113389;28;20201;-80
2021/09/09 04:32:19;;;;;;;15.10;8.05;;;;;;;14.36;100.00;93625.19;5113315;28;20551;-79
2021/09/09 04:34:46;;;;;;;12.95;7.35;;;;;;;14.31;100.00;93617.97;5113355;28;20229;-80
2021/09/09 04:37:13;;;;;;;11.23;7.20;;;;;;;14.51;100.00;93606.34;5113134;28;20201;-79
2021/09/09 04:39:39;;;;;;;10.98;6.68;;;;;;;14.52;100.00;93618.44;5113190;28;20236;-79
2021/09/09 04:42:06;;;;;;;13.38;6.70;;;;;;;14.52;100.00;93618.44;5113335;28;20601;-80
2021/09/09 04:44:32;;;;;;;12.27;6.75;;;;;;;14.59;100.00;93617.34;5112723;28;20198;-80
2021/09/09 04:46:59;;;;;;;12.02;6.82;;;;;;;14.42;100.00;93616.38;5113064;28;20197;-79
2021/09/09 04:49:25;;;;;;;12.82;7.40;;;;;;;14.19;100.00;93620.59;5113188;28;20208;-79
2021/09/09 04:51:53;;;;;;;15.85;6.55;;;;;;;14.78;100.00;93618.00;5112967;28;20233;-79
2021/09/09 04:54:20;;;;;;;11.20;6.32;;;;;;;15.03;100.00;93606.41;5113333;28;20283;-80
2021/09/09 04:56:47;;;;;;;11.70;6.85;;;;;;;14.99;100.00;93615.81;5113246;28;20197;-80
2021/09/09 04:59:13;;;;;;;14.57;6.28;;;;;;;14.85;100.00;93617.09;5113235;28;20255;-79
2021/09/09 05:01:39;;;;;;;11.02;6.68;;;;;;;14.66;100.00;93619.84;5113095;28;20201;-80
2021/09/09 05:04:06;;;;;;;12.57;6.60;;;;;;;14.58;100.00;93607.03;5112928;28;20678;-80
2021/09/09 05:06:33;;;;;;;14.35;7.18;;;;;;;14.71;100.00;93622.59;5113239;28;20217;-80
2021/09/09 05:09:00;;;;;;;10.95;6.85;;;;;;;14.75;100.00;93618.44;5115610;28;20197;-79
2021/09/09 05:11:27;;;;;;;13.95;7.07;;;;;;;14.64;100.00;93616.66;5117036;28;20225;-80
2021/09/09 05:13:53;;;;;;;13.15;6.72;;;;;;;14.37;100.00;93618.88;5117084;28;20205;-80
2021/09/09 05:16:20;;;;;;;14.68;7.00;;;;;;;14.52;100.00;93615.81;5116845;28;20201;-80
2021/09/09 05:18:46;;;;;;;13.55;7.47;;;;;;;14.33;100.00;93623.81;5115614;28;20807;-80
2021/09/09 05:21:12;;;;;;;11.98;6.82;;;;;;;14.22;100.00;93620.16;5116519;28;20201;-80
2021/09/09 05:23:39;;;;;;;12.13;6.95;;;;;;;14.21;100.00;93628.25;5116954;28;20208;-80
2021/09/09 05:26:07;;;;;;;13.38;7.25;;;;;;;14.26;100.00;93628.38;5116446;28;20236;-80
2021/09/09 05:28:33;;;;;;;15.48;7.32;;;;;;;14.47;100.00;93623.56;5116823;28;20197;-80
2021/09/09 05:31:00;;;;;;;13.18;6.85;;;;;;;14.53;100.00;93628.72;5116628;28;20267;-79
2021/09/09 05:33:26;;;;;;;17.27;7.20;;;;;;;14.82;100.00;93628.84;5116464;27;20205;-80
2021/09/09 05:35:53;;;;;;;13.25;6.85;;;;;;;14.96;100.00;93629.41;5116712;28;20197;-79
2021/09/09 05:38:19;;;;;;;13.52;6.40;;;;;;;15.34;100.00;93622.81;5116686;27;20205;-80
2021/09/09 05:40:49;;;;;;;15.88;7.10;;;;;;;15.45;100.00;93627.22;5116606;28;20205;-79
2021/09/09 05:43:16;;;;;;;11.37;7.20;;;;;;;15.73;100.00;93629.06;5115259;28;20427;-80
2021/09/09 05:45:43;;;;;;;10.13;6.78;;;;;;;15.74;100.00;93637.78;5116281;28;20200;-79
2021/09/09 05:48:09;;;;;;;10.48;6.60;;;;;;;15.72;100.00;93632.75;5116532;28;20201;-80
2021/09/09 05:50:36;;;;;;;9.70;5.88;;;;;;;15.96;100.00;93627.41;5116410;28;20225;-79
2021/09/09 05:53:02;;;;;;;11.68;6.32;;;;;;;16.27;100.00;93628.72;5116342;28;20197;-79
2021/09/09 05:55:29;;;;;;;7.35;5.65;;;;;;;16.53;100.00;93628.31;5116307;28;20262;-80
2021/09/09 05:57:55;;;;;;;12.30;5.93;;;;;;;16.94;100.00;93621.81;5116224;28;20198;-79
2021/09/09 06:00:24;;;;;;;11.90;6.20;;;;;;;17.24;100.00;93627.72;5115979;27;20588;-80
2021/09/09 06:02:51;;;;;;;8.50;5.72;;;;;;;17.57;100.00;93621.50;5116200;28;20201;-80
2021/09/09 06:05:18;;;;;;;12.20;5.70;;;;;;;17.60;100.00;93628.91;5115949;28;20720;-80
2021/09/09 06:07:45;;;;;;;12.52;5.47;;;;;;;17.85;99.14;93635.50;5115989;28;20201;-80
2021/09/09 06:10:12;;;;;;;9.60;5.65;;;;;;;18.14;95.95;93635.31;5115917;28;20306;-79
2021/09/09 06:12:38;;;;;;;13.93;6.38;;;;;;;18.34;96.14;93646.03;5115809;28;20193;-80
2021/09/09 06:15:06;;;;;;;7.65;5.10;;;;;;;18.55;95.99;93651.47;5115715;28;20197;-79
2021/09/09 06:17:34;;;;;;;16.98;6.15;;;;;;;18.71;95.72;93637.34;5115828;28;20192;-79
2021/09/09 06:20:01;;;;;;;11.45;5.57;;;;;;;18.90;98.73;93642.25;5115433;28;20325;-80
2021/09/09 06:22:27;;;;;;;7.90;5.32;;;;;;;19.16;94.31;93649.28;5115574;28;20542;-80
2021/09/09 06:24:53;;;;;;;9.07;5.55;;;;;;;19.48;87.68;93645.69;5115364;28;20240;-79
2021/09/09 06:27:20;;;;;;;9.00;4.93;;;;;;;19.91;85.32;93645.63;5109510;28;20194;-79
2021/09/09 06:29:46;;;;;;;10.10;5.03;;;;;;;19.88;88.85;93638.97;5114003;28;20205;-80
2021/09/09 06:32:13;;;;;;;8.45;4.95;;;;;;;19.94;88.40;93647.75;5114611;28;20224;-79
2021/09/09 06:34:40;;;;;;;8.90;5.55;;;;;;;19.42;94.35;93647.53;5115006;28;20204;-78
2021/09/09 06:37:07;;;;;;;9.10;5.03;;;;;;;19.49;90.25;93646.53;5115066;28;20212;-79
2021/09/09 06:39:33;;;;;;;7.85;5.35;;;;;;;19.36;93.68;93642.50;5115066;28;20198;-79
2021/09/09 06:42:00;;;;;;;10.50;4.88;;;;;;;19.36;94.12;93643.28;5114554;28;20239;-79
2021/09/09 06:44:26;;;;;;;14.85;5.30;;;;;;;19.39;95.10;93653.34;5114744;28;20201;-79
2021/09/09 06:46:53;;;;;;;10.30;4.45;;;;;;;19.69;87.68;93651.88;5114918;28;20197;-79
2021/09/09 06:49:19;;;;;;;8.02;5.07;;;;;;;19.89;88.57;93650.38;5114689;28;20201;-79
2021/09/09 06:51:47;;;;;;;9.50;4.97;;;;;;;20.02;91.63;93651.72;5114904;28;20621;-79
2021/09/09 06:54:15;;;;;;;8.07;4.70;;;;;;;20.20;84.01;93651.25;5114223;28;20197;-79
2021/09/09 06:56:41;;;;;;;9.90;5.20;;;;;;;20.47;83.87;93650.22;5114858;28;20201;-79
2021/09/09 06:59:08;;;;;;;8.55;4.85;;;;;;;20.52;86.42;93656.28;5114470;28;20204;-81
2021/09/09 07:01:34;;;;;;;7.90;4.30;;;;;;;20.64;84.78;93653.41;5114644;28;20204;-79
2021/09/09 07:04:00;;;;;;;6.60;4.25;;;;;;;20.97;78.84;93653.91;5114236;28;20556;-79
2021/09/09 07:06:27;;;;;;;8.65;4.15;;;;;;;21.09;80.98;93650.19;5114331;28;20709;-79
2021/09/09 07:08:55;;;;;;;7.78;4.15;;;;;;;21.24;76.61;93653.56;5114494;28;20193;-79
2021/09/09 07:11:21;;;;;;;9.13;4.75;;;;;;;21.35;77.07;93659.66;5113846;28;20517;-79
2021/09/09 07:13:47;;;;;;;9.70;5.38;;;;;;;21.44;75.32;93660.69;5114555;28;20193;-79
2021/09/09 07:16:14;;;;;;;13.80;4.63;;;;;;;21.48;76.76;93657.53;5114492;28;20200;-79
2021/09/09 07:18:40;;;;;;;7.22;4.18;;;;;;;21.34;73.78;93667.91;5114224;28;20198;-79
2021/09/09 07:21:07;;;;;;;8.02;4.47;;;;;;;20.83;77.17;93669.59;5114314;28;20247;-78
2021/09/09 07:23:34;;;;;;;8.05;4.47;;;;;;;20.76;75.89;93669.06;5114457;27;20233;-78
2021/09/09 07:26:02;;;;;;;11.60;5.05;;;;;;;20.65;77.19;93668.28;5114111;28;20229;-80
2021/09/09 07:28:28;;;;;;;6.70;4.10;;;;;;;20.60;75.41;93673.56;5113994;27;20213;-79
2021/09/09 07:30:54;;;;;;;10.23;4.60;;;;;;;20.60;77.34;93678.84;5113197;28;20225;-80
2021/09/09 07:33:21;;;;;;;8.15;4.90;;;;;;;20.27;76.78;93678.28;5114256;28;20205;-80
2021/09/09 07:35:47;;;;;;;10.13;4.55;;;;;;;20.13;81.02;93675.38;5114237;28;20205;-80
2021/09/09 07:38:14;;;;;;;6.22;4.15;;;;;;;20.11;76.55;93674.00;5114062;28;20204;-80
2021/09/09 07:40:40;;;;;;;8.38;4.22;;;;;;;20.13;79.68;93678.00;5114000;28;20205;-79
2021/09/09 07:43:08;;;;;;;5.93;3.97;;;;;;;20.17;73.27;93667.69;5114176;28;20197;-80
2021/09/09 07:45:35;;;;;;;6.65;3.70;;;;;;;20.33;75.84;93677.25;5101961;28;20193;-79
2021/09/09 07:48:01;;;;;;;7.72;4.35;;;;;;;20.32;75.39;93682.81;5093463;28;20206;-79
2021/09/09 07:50:28;;;;;;;6.05;3.90;;;;;;;20.44;76.26;93686.00;5093638;28;20202;-79
2021/09/09 07:52:55;;;;;;;5.93;3.45;;;;;;;20.26;75.81;93689.16;5093343;28;20228;-79
2021/09/09 07:55:21;;;;;;;6.40;4.13;;;;;;;20.10;73.38;93683.84;5093704;28;20225;-79
2021/09/09 07:57:48;;;;;;;8.68;4.32;;;;;;;20.26;76.49;93689.94;5092708;28;20456;-79
2021/09/09 08:00:16;;;;;;;7.82;4.13;;;;;;;20.31;76.78;93695.25;5102650;28;20197;-79
2021/09/09 08:02:43;;;;;;;5.47;3.83;;;;;;;20.24;74.09;93692.06;5113628;28;20247;-79
2021/09/09 08:05:10;;;;;;;5.55;3.50;;;;;;;20.19;75.56;93697.38;5113707;28;20204;-79
2021/09/09 08:07:41;;;;;;;8.48;3.70;;;;;;;20.02;72.04;93702.06;5113174;28;20208;-79
2021/09/09 08:10:10;;;;;;;7.85;3.97;;;;;;;20.06;73.01;93711.91;5113654;28;20205;-78
2021/09/09 08:12:36;;;;;;;7.50;4.18;;;;;;;20.39;73.71;93695.81;5113114;28;20710;-80
2021/09/09 08:15:04;;;;;;;8.57;4.05;;;;;;;20.45;76.57;93706.16;5113679;28;20210;-80
2021/09/09 08:17:31;;;;;;;6.47;4.03;;;;;;;20.67;68.92;93713.91;5113502;27;20189;-82
2021/09/09 08:19:58;;;;;;;8.23;3.90;;;;;;;20.69;70.99;93717.06;5113440;28;20643;-80
2021/09/09 08:22:26;;;;;;;8.43;3.78;;;;;;;20.95;71.35;93713.63;5113691;28;20201;-80
2021/09/09 08:24:52;;;;;;;5.13;3.67;;;;;;;20.63;70.74;93717.34;5113466;28;20221;-79
2021/09/09 08:27:19;;;;;;;6.03;3.72;;;;;;;20.63;71.27;93717.34;5113569;28;20212;-80
2021/09/09 08:29:45;;;;;;;6.97;3.88;;;;;;;20.49;71.71;93719.69;5113419;28;20205;-80
2021/09/09 08:32:12;;;;;;;4.97;3.33;;;;;;;20.42;70.91;93717.28;5112666;28;20228;-79
2021/09/09 08:34:40;;;;;;;7.00;3.30;;;;;;;20.52;70.44;93719.16;5113125;28;20204;-79
2021/09/09 08:37:06;;;;;;;7.22;3.78;;;;;;;20.58;68.62;93712.78;5113292;28;20661;-80
2021/09/09 08:39:33;;;;;;;4.78;3.50;;;;;;;20.66;69.39;93722.13;5112885;28;20798;-79
2021/09/09 08:41:59;;;;;;;5.63;3.75;;;;;;;20.26;72.94;93734.22;5114423;28;20197;-80
2021/09/09 08:44:26;;;;;;;8.27;3.95;;;;;;;20.37;72.78;93740.34;5117577;27;20205;-80
2021/09/09 08:46:52;;;;;;;7.38;3.50;;;;;;;20.37;72.02;93745.66;5117562;28;20262;-79
2021/09/09 08:49:24;;;;;;;6.85;3.42;;;;;;;20.58;71.45;93741.97;5117441;28;20201;-80
2021/09/09 08:51:52;;;;;;;7.07;3.63;;;;;;;20.85;71.14;93749.72;5116278;28;20304;-79
2021/09/09 08:54:19;;;;;;;9.77;4.40;;;;;;;20.93;68.86;93753.69;5117462;28;20204;-80
2021/09/09 08:56:45;;;;;;;5.60;3.22;;;;;;;21.02;69.04;93752.13;5117363;28;20238;-80
2021/09/09 08:59:11;;;;;;;7.70;3.45;;;;;;;20.85;68.64;93749.72;5117311;28;20205;-80
2021/09/09 09:01:59;;;;;;;6.78;3.88;;;;;;;20.83;67.03;93751.03;5117020;28;20209;-81
2021/09/09 09:04:25;;;;;;;9.13;3.95;;;;;;;20.98;67.03;93759.00;5117373;28;20200;-80
2021/09/09 09:06:53;;;;;;;5.90;3.78;;;;;;;21.11;66.77;93755.03;5117144;28;20197;-77
2021/09/09 09:09:24;;;;;;;6.47;3.90;;;;;;;21.15;65.31;93749.97;5117125;28;20204;-80
2021/09/09 09:11:52;;;;;;;10.07;3.63;;;;;;;21.29;65.28;93747.59;5116908;28;20433;-80
2021/09/09 09:14:20;;;;;;;5.18;3.63;;;;;;;21.67;63.24;93748.88;5115708;28;20197;-81
2021/09/09 09:16:49;;;;;;;7.50;3.35;;;;;;;21.95;64.22;93744.00;5116494;28;20204;-80
2021/09/09 09:19:19;;;;;;;7.32;3.70;;;;;;;21.53;62.33;93739.88;5096848;28;20198;-81
2021/09/09 09:21:47;;;;;;;7.20;3.83;;;;;;;22.10;67.60;93743.13;5096569;28;20205;-80
2021/09/09 09:24:19;;;;;;;5.15;3.40;;;;;;;22.42;62.05;93745.38;5095409;28;20437;-81
2021/09/09 09:27:04;;;;;;;5.05;3.35;;;;;;;22.79;58.27;93744.06;5096150;28;20317;-81
2021/09/09 09:29:30;;;;;;;6.43;3.53;;;;;;;22.83;61.76;93742.47;5096518;28;20293;-80
2021/09/09 09:32:09;;;;;;;5.78;3.45;;;;;;;23.06;56.65;93742.81;5096299;28;20275;-80
2021/09/09 09:34:35;;;;;;;5.55;3.45;;;;;;;23.00;57.91;93754.56;5096280;28;20554;-80
2021/09/09 09:37:02;;;;;;;5.78;3.40;;;;;;;22.59;59.85;93750.34;5096253;28;20232;-81
2021/09/09 09:39:30;;;;;;;8.50;3.60;;;;;;;22.64;61.78;93752.19;5096288;28;20205;-81
2021/09/09 09:41:59;;;;;;;8.38;3.33;;;;;;;22.29;59.31;93767.28;5096233;28;20205;-80
2021/09/09 09:44:29;;;;;;;5.05;3.28;;;;;;;22.43;57.15;93752.31;5095961;28;20633;-80
2021/09/09 09:47:06;;;;;;;4.70;3.28;;;;;;;22.58;60.44;93753.28;5096011;28;20221;-80
2021/09/09 09:49:33;;;;;;;6.10;3.08;;;;;;;22.82;61.05;93751.53;5095951;28;20202;-80
2021/09/09 09:52:01;;;;;;;4.82;3.38;;;;;;;23.08;57.52;93752.16;5095708;28;20230;-80
2021/09/09 09:54:29;;;;;;;7.47;3.75;;;;;;;22.83;54.95;93755.78;5095048;28;20656;-80
2021/09/09 09:56:58;;;;;;;6.68;3.30;;;;;;;22.17;56.87;93757.72;5095892;28;20198;-80
2021/09/09 09:59:25;;;;;;;5.85;3.10;;;;;;;22.07;60.59;93754.31;5095753;28;20209;-80
2021/09/09 10:01:52;;;;;;;9.63;3.65;;;;;;;22.18;62.57;93758.50;5096152;28;20302;-80
2021/09/09 10:04:20;;;;;;;7.82;3.83;;;;;;;22.11;62.89;93750.03;5096028;28;20663;-80
2021/09/09 10:06:49;;;;;;;6.07;3.75;;;;;;;22.01;59.81;93755.41;5095501;28;20213;-80
2021/09/09 10:09:17;;;;;;;8.73;3.45;;;;;;;22.29;61.46;93754.75;5095705;28;20654;-80
2021/09/09 10:11:45;;;;;;;7.07;3.95;;;;;;;22.04;59.03;93750.31;5095547;28;20233;-80
2021/09/09 10:14:19;;;;;;;6.80;3.78;;;;;;;21.65;58.64;93756.31;5095452;28;20209;-80
2021/09/09 10:16:46;;;;;;;5.55;3.63;;;;;;;21.66;61.29;93744.59;5095331;28;20293;-80
2021/09/09 10:19:13;;;;;;;8.57;3.60;;;;;;;21.87;62.98;93749.88;5115737;28;20193;-80
2021/09/09 10:21:44;;;;;;;6.55;3.80;;;;;;;22.12;62.98;93747.09;5115816;28;20209;-80
2021/09/09 10:24:13;;;;;;;5.28;3.38;;;;;;;22.35;61.08;93739.59;5115798;28;20231;-80
2021/09/09 10:26:41;;;;;;;11.48;3.55;;;;;;;22.43;60.23;93740.84;5115249;28;20234;-82
2021/09/09 10:29:44;;;;;;;9.57;3.42;;;;;;;22.55;60.57;93741.31;5115437;28;20201;-81
2021/09/09 10:32:48;;;;;;;8.95;3.92;;;;;;;22.45;58.72;93742.19;5115621;27;20216;-80
2021/09/09 10:35:37;;;;;;;5.25;3.13;;;;;;;22.40;59.10;93746.72;5115527;28;20194;-80
2021/09/09 10:38:43;;;;;;;5.30;3.67;;;;;;;22.69;63.82;93744.16;5115551;28;20224;-80
2021/09/09 10:41:27;;;;;;;6.10;3.60;;;;;;;22.85;59.62;93745.66;5110345;28;20207;-80
2021/09/09 10:43:59;;;;;;;9.25;3.63;;;;;;;22.81;60.28;93744.59;5115260;28;20212;-80
2021/09/09 10:46:32;;;;;;;8.32;3.78;;;;;;;22.87;58.98;93740.03;5115179;28;20202;-80
2021/09/09 10:49:15;;;;;;;5.50;3.80;;;;;;;22.56;57.94;93744.78;5114378;28;20229;-80
2021/09/09 10:52:04;;;;;;;7.10;3.63;;;;;;;22.48;57.09;93746.97;5115053;28;20193;-80
2021/09/09 10:54:31;;;;;;;6.13;3.70;;;;;;;22.43;58.50;93741.66;5115256;28;20551;-80
2021/09/09 10:57:12;;;;;;;6.47;3.80;;;;;;;22.67;57.16;93735.66;5115119;28;20201;-80
2021/09/09 10:59:46;;;;;;;10.00;3.65;;;;;;;22.78;56.57;93739.81;5114944;28;20205;-80
2021/09/09 11:02:15;;;;;;;6.97;3.88;;;;;;;22.79;59.52;93733.44;5114955;28;20208;-80
2021/09/09 11:04:41;;;;;;;6.85;4.20;;;;;;;22.90;64.22;93740.28;5114406;28;20208;-80
2021/09/09 11:07:21;;;;;;;5.95;4.22;;;;;;;23.01;61.32;93734.88;5114075;28;20193;-80
2021/09/09 11:09:47;;;;;;;5.88;3.78;;;;;;;23.01;60.79;93742.84;5114930;28;20292;-80
2021/09/09 11:12:14;;;;;;;7.00;3.45;;;;;;;23.01;57.65;93737.53;5114671;28;20228;-80
2021/09/09 11:14:41;;;;;;;7.00;3.90;;;;;;;22.91;56.77;93739.22;5114620;28;20193;-80
2021/09/09 11:17:18;;;;;;;9.27;3.80;;;;;;;23.04;58.22;93734.31;5114455;28;20200;-80
2021/09/09 11:19:45;;;;;;;6.80;3.40;;;;;;;23.22;55.18;93736.31;5114791;28;20197;-79
2021/09/09 11:22:11;;;;;;;7.55;3.80;;;;;;;23.42;58.54;93739.88;5114499;28;20209;-80
2021/09/09 11:24:37;;;;;;;5.60;3.72;;;;;;;23.66;55.84;93739.88;5114395;28;20533;-81
2021/09/09 11:27:13;;;;;;;6.35;3.63;;;;;;;23.54;56.15;93742.16;5114534;28;20197;-80